General Aviation Weather

Text Reports

Enter one or more of the following location identifiers separated by a space:

Zip Code, Four-Character ICAO or Three-Character IATA airport codes.

METAR - Aviation Routine Weather Report
KUBE - Cumberland, Wisconsin
Updated at 2:15 PM GMT on July 13, 2014 (9:15 AM CDT):
METAR KUBE 131415Z AUTO 29007KT 10SM CLR 16/09 A2997 RMK AO2
TAF - Terminal Area Forecast
KUBE - Cumberland, Wisconsin
Updated at 2:15 PM GMT on July 13, 2014 (9:15 AM CDT):
No TAF is currently available for this location.
Decoded:
No decoded TAF is available.
PIREP - Pilot Weather Report
KUBE - Cumberland, Wisconsin
Updated at 2:15 PM GMT on July 13, 2014 (9:15 AM CDT):
No PIREP is currently available for this location.
AIRMET - Airmens Meteorological Information
KUBE - Cumberland, Wisconsin
Updated at 2:15 PM GMT on July 13, 2014 (9:15 AM CDT):
No AIRMET is currently available for this location.
SIGMET - Significant Meteorological Information
KUBE - Cumberland, Wisconsin
Updated at 2:15 PM GMT on July 13, 2014 (9:15 AM CDT):
No SIGMET is currently available for this location.
NOTAM - Notice to Airmen
KUBE - Cumberland, Wisconsin
Updated at 2:15 PM GMT on July 13, 2014 (9:15 AM CDT):
No NOTAM is currently available for this location.
Forecast Area
KUBE - Cumberland, Wisconsin
Updated at 2:15 PM GMT on July 13, 2014 (9:15 AM CDT):
No NOTAM is currently available for this location.
Aviation Weather Maps